Time;durP1;ratioP1;P1;durP2;ratioP2;P2;SDS_P1;SDS_P2;PMS_P1;PMS_P2;Temp;Humidity;BMP_temperature;BMP_pressure;BME280_temperature;BME280_humidity;BME280_pressure;Samples;Min_cycle;Max_cycle;Signal;HPM_P1;HPM_P2
2023/06/19 00:02:01;;;;;;;8.10;7.18;;;22.00;77.50;;;;;;5083926;28;20036;-84
2023/06/19 00:04:26;;;;;;;8.02;6.82;;;22.20;77.50;;;;;;5086666;28;20048;-84
2023/06/19 00:06:53;;;;;;;7.80;7.07;;;22.30;77.30;;;;;;5086049;28;20080;-84
2023/06/19 00:09:19;;;;;;;8.07;7.35;;;22.00;77.00;;;;;;5084740;28;20044;-84
2023/06/19 00:11:45;;;;;;;8.48;7.68;;;22.50;77.20;;;;;;5086719;28;20090;-83
2023/06/19 00:14:11;;;;;;;7.82;7.13;;;22.00;76.80;;;;;;5087917;28;20042;-84
2023/06/19 00:16:36;;;;;;;8.45;7.57;;;22.00;76.60;;;;;;5086206;28;20044;-84
2023/06/19 00:19:03;;;;;;;7.82;7.05;;;22.00;76.50;;;;;;5087363;28;20051;-84
2023/06/19 00:21:29;;;;;;;7.75;7.03;;;22.40;76.80;;;;;;5087282;28;20058;-85
2023/06/19 00:23:55;;;;;;;8.05;7.25;;;22.00;76.50;;;;;;5089014;28;20216;-83
2023/06/19 00:26:22;;;;;;;8.30;7.50;;;22.00;76.40;;;;;;5086721;28;20150;-84
2023/06/19 00:28:51;;;;;;;8.23;7.53;;;22.10;76.30;;;;;;5068290;28;20043;-84
2023/06/19 00:31:18;;;;;;;7.68;7.07;;;22.00;76.40;;;;;;5072055;28;20044;-85
2023/06/19 00:33:45;;;;;;;9.55;7.35;;;21.90;76.40;;;;;;5086552;28;20048;-85
2023/06/19 00:36:12;;;;;;;7.75;7.05;;;21.90;76.40;;;;;;5087149;28;20044;-85
2023/06/19 00:38:41;;;;;;;7.68;6.93;;;21.90;76.30;;;;;;5071106;28;20036;-84
2023/06/19 00:41:07;;;;;;;7.78;6.80;;;21.90;76.50;;;;;;5070655;28;20039;-85
2023/06/19 00:43:33;;;;;;;7.85;7.22;;;22.20;76.40;;;;;;5085583;28;20392;-85
2023/06/19 00:46:00;;;;;;;8.65;7.85;;;22.10;76.10;;;;;;5070999;28;20043;-83
2023/06/19 00:48:30;;;;;;;8.25;7.45;;;22.00;75.70;;;;;;5086131;28;20503;-83
2023/06/19 00:50:56;;;;;;;8.07;7.32;;;21.90;75.50;;;;;;5085444;28;20056;-83
2023/06/19 00:53:22;;;;;;;7.88;7.15;;;21.90;75.10;;;;;;5086574;28;20055;-84
2023/06/19 00:55:51;;;;;;;8.00;7.30;;;22.00;75.10;;;;;;5086757;28;20100;-83
2023/06/19 00:58:17;;;;;;;8.00;7.20;;;22.00;74.90;;;;;;5086198;28;20044;-83
2023/06/19 01:00:43;;;;;;;7.43;6.72;;;22.00;74.90;;;;;;5067699;28;20051;-84
2023/06/19 01:03:09;;;;;;;8.40;7.03;;;22.00;74.80;;;;;;5085683;28;20044;-85
2023/06/19 01:05:35;;;;;;;8.52;6.72;;;22.00;74.60;;;;;;5085476;28;20084;-84
2023/06/19 01:08:19;;;;;;;8.00;7.30;;;21.90;74.80;;;;;;5066531;28;20431;-83
2023/06/19 01:10:49;;;;;;;8.00;7.30;;;21.90;74.60;;;;;;5084163;28;20046;-82
2023/06/19 01:13:31;;;;;;;7.72;7.03;;;22.00;75.20;;;;;;5063290;28;20487;-83
2023/06/19 01:15:57;;;;;;;8.40;7.55;;;22.00;74.20;;;;;;5086043;28;20122;-84
2023/06/19 01:18:24;;;;;;;7.85;7.15;;;21.80;74.20;;;;;;5069232;28;20509;-83
2023/06/19 01:20:50;;;;;;;7.38;6.78;;;22.00;74.20;;;;;;5068446;28;20039;-84
2023/06/19 01:23:15;;;;;;;8.35;7.43;;;22.00;73.90;;;;;;5085044;28;20383;-84
2023/06/19 01:25:41;;;;;;;8.07;7.28;;;22.00;74.80;;;;;;5087785;28;20540;-85
2023/06/19 01:28:10;;;;;;;7.00;6.38;;;22.10;73.90;;;;;;5084392;28;20415;-85
2023/06/19 01:30:37;;;;;;;8.23;6.97;;;22.10;73.60;;;;;;5087344;28;20125;-84
2023/06/19 01:33:12;;;;;;;7.90;7.13;;;22.20;73.70;;;;;;5067327;28;20693;-84
2023/06/19 01:35:41;;;;;;;7.07;6.40;;;22.10;73.70;;;;;;5085008;28;20122;-84
2023/06/19 01:38:07;;;;;;;7.57;6.82;;;22.00;73.60;;;;;;5082792;28;20048;-84
2023/06/19 01:40:35;;;;;;;13.52;7.30;;;22.20;73.80;;;;;;5088909;28;20043;-84
2023/06/19 01:43:02;;;;;;;7.88;7.13;;;22.20;73.90;;;;;;5067902;28;20407;-84
2023/06/19 01:45:29;;;;;;;8.20;7.40;;;22.10;74.10;;;;;;5083678;28;20439;-85
2023/06/19 01:47:55;;;;;;;7.75;6.97;;;22.30;74.20;;;;;;5082865;28;20040;-84
2023/06/19 01:50:24;;;;;;;8.38;7.47;;;22.10;74.50;;;;;;5084568;28;20101;-85
2023/06/19 01:52:50;;;;;;;7.72;6.97;;;22.10;74.60;;;;;;5085094;28;20043;-85
2023/06/19 01:55:16;;;;;;;7.88;7.10;;;22.00;74.80;;;;;;5067246;28;20048;-84
2023/06/19 01:57:42;;;;;;;8.57;6.93;;;22.00;75.00;;;;;;5085995;28;20504;-84
2023/06/19 02:00:08;;;;;;;7.22;6.53;;;22.00;75.00;;;;;;5084332;28;20527;-84
2023/06/19 02:02:37;;;;;;;8.02;7.18;;;22.00;75.20;;;;;;5084243;28;20055;-84
2023/06/19 02:05:03;;;;;;;7.63;6.93;;;21.90;75.50;;;;;;5085083;28;20192;-84
2023/06/19 02:07:28;;;;;;;7.70;7.10;;;21.90;75.90;;;;;;5067531;28;20397;-84
2023/06/19 02:09:54;;;;;;;8.00;7.20;;;21.80;76.20;;;;;;5084544;28;20468;-84
2023/06/19 02:12:20;;;;;;;8.05;7.30;;;22.40;77.10;;;;;;5070167;28;20032;-84
2023/06/19 02:14:45;;;;;;;11.10;7.30;;;21.70;77.00;;;;;;5065173;28;20082;-84
2023/06/19 02:17:11;;;;;;;7.65;6.90;;;21.70;77.40;;;;;;5082950;28;20055;-83
2023/06/19 02:19:36;;;;;;;9.60;7.75;;;21.70;77.40;;;;;;5083940;28;20052;-83
2023/06/19 02:22:02;;;;;;;7.60;6.90;;;21.80;78.00;;;;;;5084193;28;20150;-84
2023/06/19 02:24:28;;;;;;;8.70;6.90;;;21.60;78.20;;;;;;5068239;28;20163;-85
2023/06/19 02:26:53;;;;;;;8.07;7.38;;;21.60;78.50;;;;;;5085201;28;20585;-84
2023/06/19 02:29:20;;;;;;;8.68;7.25;;;22.00;79.20;;;;;;5086268;28;20088;-84
2023/06/19 02:31:45;;;;;;;9.65;7.07;;;21.50;79.10;;;;;;5084958;28;20127;-84
2023/06/19 02:34:11;;;;;;;8.02;7.13;;;21.40;79.20;;;;;;5085221;28;20190;-84
2023/06/19 02:36:37;;;;;;;7.80;7.10;;;21.50;79.60;;;;;;5067760;28;20155;-84
2023/06/19 02:39:06;;;;;;;8.75;7.30;;;21.80;80.30;;;;;;5086141;28;20050;-84
2023/06/19 02:41:32;;;;;;;7.78;7.15;;;21.40;80.50;;;;;;5085337;28;20115;-84
2023/06/19 02:43:58;;;;;;;7.65;6.95;;;21.50;80.90;;;;;;5085669;28;20868;-84
2023/06/19 02:46:23;;;;;;;7.55;6.75;;;21.40;81.10;;;;;;5085896;28;20044;-84
2023/06/19 02:48:49;;;;;;;9.75;7.35;;;21.30;81.40;;;;;;5070935;28;20138;-84
2023/06/19 02:51:15;;;;;;;9.30;7.53;;;21.80;82.00;;;;;;5065015;28;20098;-83
2023/06/19 02:53:41;;;;;;;7.90;7.20;;;21.30;82.20;;;;;;5085767;28;20044;-83
2023/06/19 02:56:07;;;;;;;8.30;7.45;;;21.30;82.50;;;;;;5068253;28;20055;-83
2023/06/19 02:58:34;;;;;;;8.05;6.85;;;21.30;82.70;;;;;;5085108;28;20048;-84
2023/06/19 03:01:02;;;;;;;8.68;7.45;;;21.30;83.10;;;;;;5069267;28;20082;-83
2023/06/19 03:03:27;;;;;;;8.15;7.45;;;21.80;83.60;;;;;;5068828;28;20083;-83
2023/06/19 03:05:53;;;;;;;7.68;6.95;;;21.20;83.80;;;;;;5084774;28;20040;-84
2023/06/19 03:08:18;;;;;;;8.48;7.50;;;21.60;84.60;;;;;;5083149;28;20044;-84
2023/06/19 03:10:44;;;;;;;9.73;7.57;;;21.30;84.80;;;;;;5070826;28;20043;-84
2023/06/19 03:13:10;;;;;;;8.68;7.78;;;21.50;85.40;;;;;;5086192;28;20059;-84
2023/06/19 03:15:35;;;;;;;8.27;7.47;;;21.60;86.00;;;;;;5090252;28;20051;-84
2023/06/19 03:18:04;;;;;;;8.23;7.40;;;21.60;86.40;;;;;;5086403;28;20048;-84
2023/06/19 03:20:29;;;;;;;7.90;7.30;;;21.80;87.30;;;;;;5071274;28;20056;-84
2023/06/19 03:22:55;;;;;;;7.88;7.18;;;21.20;87.60;;;;;;5087504;28;20047;-84
2023/06/19 03:25:21;;;;;;;7.57;6.88;;;21.20;88.10;;;;;;5073024;28;20040;-83
2023/06/19 03:27:46;;;;;;;6.93;6.28;;;21.30;89.10;;;;;;5089437;28;20404;-83
2023/06/19 03:30:12;;;;;;;9.52;6.03;;;21.40;89.60;;;;;;5088000;28;20097;-84
2023/06/19 03:32:38;;;;;;;7.15;6.45;;;21.30;90.10;;;;;;5084140;28;20109;-84
2023/06/19 03:35:05;;;;;;;6.97;6.38;;;21.30;90.20;;;;;;5088700;28;20101;-83
2023/06/19 03:37:32;;;;;;;6.20;5.68;;;21.30;90.50;;;;;;5076766;28;20060;-85
2023/06/19 03:39:58;;;;;;;6.53;5.93;;;21.40;90.90;;;;;;5089292;28;20085;-84
2023/06/19 03:42:23;;;;;;;6.25;5.53;;;21.40;91.10;;;;;;5086267;28;20047;-85
2023/06/19 03:44:49;;;;;;;5.88;5.38;;;21.30;91.20;;;;;;5085666;28;20051;-85
2023/06/19 03:47:16;;;;;;;8.82;5.55;;;21.40;91.50;;;;;;5069460;28;20047;-85
2023/06/19 03:49:41;;;;;;;5.45;5.00;;;21.30;91.70;;;;;;5066288;28;20127;-83
2023/06/19 03:52:07;;;;;;;6.15;5.65;;;21.60;92.20;;;;;;5087271;28;20123;-85
2023/06/19 03:54:33;;;;;;;5.82;5.22;;;21.30;92.50;;;;;;5086310;28;20388;-85
2023/06/19 03:56:58;;;;;;;5.60;5.07;;;21.20;92.60;;;;;;5085555;28;20054;-84
2023/06/19 03:59:24;;;;;;;4.78;4.07;;;21.20;93.20;;;;;;5083573;28;20040;-84
2023/06/19 04:01:50;;;;;;;5.25;4.47;;;21.20;93.90;;;;;;5069797;28;20048;-84
2023/06/19 04:04:15;;;;;;;4.90;3.65;;;21.30;94.30;;;;;;5086985;28;20055;-83
2023/06/19 04:06:41;;;;;;;4.05;3.50;;;21.10;94.90;;;;;;5087256;28;20123;-85
2023/06/19 04:09:06;;;;;;;4.53;3.60;;;21.10;95.40;;;;;;5086993;28;20051;-84
2023/06/19 04:11:32;;;;;;;4.00;3.60;;;21.30;95.90;;;;;;5087726;28;20407;-84
2023/06/19 04:13:58;;;;;;;4.13;3.72;;;21.70;96.70;;;;;;5087899;28;20203;-82
2023/06/19 04:16:23;;;;;;;3.53;3.22;;;21.00;96.70;;;;;;5087232;28;20047;-84
2023/06/19 04:18:49;;;;;;;3.90;3.35;;;21.00;97.20;;;;;;5067749;28;20085;-82
2023/06/19 04:21:15;;;;;;;3.97;3.40;;;21.00;97.80;;;;;;5087253;28;20110;-83
2023/06/19 04:23:40;;;;;;;3.90;3.60;;;21.00;97.90;;;;;;5086364;28;20051;-83
2023/06/19 04:26:06;;;;;;;4.03;3.58;;;21.10;98.50;;;;;;5085770;28;20407;-84
2023/06/19 04:28:32;;;;;;;5.47;3.58;;;20.90;98.80;;;;;;5085071;28;20048;-84
2023/06/19 04:31:00;;;;;;;3.70;3.35;;;20.90;99.10;;;;;;5088199;28;20123;-84
2023/06/19 04:33:29;;;;;;;4.03;3.63;;;20.90;99.30;;;;;;5087317;28;20100;-84
2023/06/19 04:35:55;;;;;;;5.15;3.45;;;20.90;99.90;;;;;;5087715;28;20032;-86
2023/06/19 04:38:23;;;;;;;4.25;3.50;;;20.90;99.90;;;;;;5089119;28;20094;-83
2023/06/19 04:40:53;;;;;;;3.95;3.13;;;21.30;99.90;;;;;;5053352;28;20052;-84
2023/06/19 04:43:19;;;;;;;4.30;3.05;;;20.90;99.90;;;;;;5077525;28;20044;-84
2023/06/19 04:45:45;;;;;;;4.30;3.28;;;21.00;99.90;;;;;;5086841;28;20054;-82
2023/06/19 04:48:11;;;;;;;4.32;3.13;;;20.90;99.90;;;;;;5069432;28;20144;-83
2023/06/19 04:50:37;;;;;;;3.47;3.13;;;20.90;99.90;;;;;;5071277;28;20402;-86
2023/06/19 04:53:02;;;;;;;3.40;3.10;;;20.90;99.90;;;;;;5087617;28;20044;-84
2023/06/19 04:55:28;;;;;;;3.55;2.95;;;21.00;99.90;;;;;;5072804;28;20356;-83
2023/06/19 04:57:54;;;;;;;3.30;3.00;;;20.90;99.90;;;;;;5069515;28;20048;-82
2023/06/19 05:00:21;;;;;;;3.20;2.90;;;20.90;99.90;;;;;;5083829;28;20411;-82
2023/06/19 05:02:47;;;;;;;3.05;2.75;;;21.40;99.90;;;;;;5070921;28;20048;-83
2023/06/19 05:05:13;;;;;;;3.03;2.72;;;20.80;99.90;;;;;;5088346;28;20074;-83
2023/06/19 05:07:39;;;;;;;3.47;3.17;;;20.80;99.90;;;;;;5088870;28;20514;-83
2023/06/19 05:10:06;;;;;;;3.65;3.35;;;20.90;99.90;;;;;;5084500;28;20044;-83
2023/06/19 05:12:31;;;;;;;3.80;3.33;;;20.90;99.90;;;;;;5086448;28;20253;-83
2023/06/19 05:14:57;;;;;;;3.45;3.15;;;20.90;99.90;;;;;;5081594;28;20156;-83
2023/06/19 05:17:23;;;;;;;3.55;3.25;;;20.90;99.90;;;;;;5082252;28;20043;-83
2023/06/19 05:19:49;;;;;;;5.10;3.13;;;21.50;99.90;;;;;;5078605;28;20040;-84
2023/06/19 05:22:21;;;;;;;3.78;3.40;;;21.10;99.90;;;;;;5066693;28;20071;-85
2023/06/19 05:24:47;;;;;;;9.65;3.35;;;21.10;99.90;;;;;;5064305;28;21096;-84
2023/06/19 05:27:13;;;;;;;3.65;3.35;;;21.30;99.90;;;;;;5080271;28;20051;-84
2023/06/19 05:29:38;;;;;;;3.72;3.22;;;21.50;99.90;;;;;;5074700;28;20048;-85
2023/06/19 05:32:04;;;;;;;6.60;3.60;;;21.80;99.90;;;;;;5086526;28;20039;-83
2023/06/19 05:34:30;;;;;;;3.97;3.42;;;22.10;99.90;;;;;;5083466;28;20043;-84
2023/06/19 05:36:56;;;;;;;4.13;3.78;;;22.20;99.90;;;;;;5070416;28;20400;-83
2023/06/19 05:39:22;;;;;;;4.88;3.58;;;22.40;99.90;;;;;;5087288;28;20500;-85
2023/06/19 05:41:47;;;;;;;3.70;3.35;;;21.90;99.90;;;;;;5087365;28;20040;-85
2023/06/19 05:44:16;;;;;;;3.85;3.50;;;21.70;99.90;;;;;;5087241;28;20175;-83
2023/06/19 05:46:42;;;;;;;4.07;3.67;;;21.70;99.90;;;;;;5070096;28;20450;-83
2023/06/19 05:49:08;;;;;;;4.88;3.85;;;21.90;99.90;;;;;;5085305;28;20366;-84
2023/06/19 05:51:34;;;;;;;5.00;3.60;;;21.70;99.90;;;;;;5086014;28;20052;-84
2023/06/19 05:54:03;;;;;;;3.65;3.35;;;22.10;99.90;;;;;;5086119;28;20052;-85
2023/06/19 05:56:33;;;;;;;4.43;3.97;;;21.70;99.90;;;;;;5069866;28;20048;-84
2023/06/19 05:58:59;;;;;;;3.47;3.17;;;22.30;99.90;;;;;;5086904;28;20055;-84
2023/06/19 06:01:28;;;;;;;3.92;3.63;;;21.70;99.90;;;;;;5087679;28;20063;-84
2023/06/19 06:03:55;;;;;;;3.80;3.50;;;21.70;99.90;;;;;;5087211;28;20457;-82
2023/06/19 06:06:22;;;;;;;3.67;2.97;;;21.70;99.90;;;;;;5086322;28;20079;-82
2023/06/19 06:08:47;;;;;;;3.42;3.13;;;21.60;99.90;;;;;;5078499;28;20414;-81
2023/06/19 06:11:14;;;;;;;3.63;3.33;;;21.70;99.90;;;;;;5061028;28;20043;-82
2023/06/19 06:13:40;;;;;;;4.45;3.70;;;21.90;99.90;;;;;;5083760;28;20054;-81
2023/06/19 06:16:05;;;;;;;3.33;3.13;;;21.80;99.90;;;;;;5086846;28;20048;-82
2023/06/19 06:18:31;;;;;;;4.25;3.88;;;21.90;99.90;;;;;;5077237;28;20041;-82
2023/06/19 06:20:58;;;;;;;7.55;4.00;;;21.90;99.90;;;;;;5065862;28;20049;-84
2023/06/19 06:23:24;;;;;;;5.13;4.00;;;21.80;99.90;;;;;;5066111;28;20101;-81
2023/06/19 06:25:50;;;;;;;4.65;4.25;;;21.80;99.90;;;;;;5066566;28;20040;-83
2023/06/19 06:28:16;;;;;;;4.30;3.90;;;21.70;99.90;;;;;;5082485;28;20071;-83
2023/06/19 06:30:45;;;;;;;4.45;4.05;;;21.70;99.90;;;;;;5087231;28;20048;-82
2023/06/19 06:33:10;;;;;;;4.90;4.50;;;21.60;99.90;;;;;;5067679;28;20036;-84
2023/06/19 06:35:36;;;;;;;6.22;4.45;;;21.50;99.90;;;;;;5073983;28;20037;-83
2023/06/19 06:38:02;;;;;;;5.93;5.43;;;21.50;99.90;;;;;;5084648;28;20043;-81
2023/06/19 06:40:28;;;;;;;7.15;6.07;;;21.50;99.90;;;;;;5086634;28;20446;-82
2023/06/19 06:42:54;;;;;;;7.85;7.00;;;21.40;99.90;;;;;;5086527;28;20054;-82
2023/06/19 06:45:19;;;;;;;32.08;8.73;;;21.40;99.90;;;;;;5086304;28;20091;-82
2023/06/19 06:47:45;;;;;;;23.83;8.73;;;21.30;99.90;;;;;;5087921;28;20059;-82
2023/06/19 06:50:11;;;;;;;11.30;8.50;;;21.20;99.90;;;;;;5087744;28;20117;-82
2023/06/19 06:52:37;;;;;;;10.40;9.32;;;21.40;99.90;;;;;;5086639;28;20050;-82
2023/06/19 06:55:03;;;;;;;9.68;8.38;;;21.10;99.90;;;;;;5069651;28;20140;-81
2023/06/19 06:57:29;;;;;;;9.77;8.23;;;21.20;99.90;;;;;;5085956;28;20052;-82
2023/06/19 06:59:55;;;;;;;7.97;7.18;;;21.20;99.90;;;;;;5067566;28;20051;-82
2023/06/19 07:02:20;;;;;;;8.52;7.65;;;21.20;99.90;;;;;;5085237;28;20135;-83
2023/06/19 07:04:46;;;;;;;7.68;6.90;;;21.20;99.90;;;;;;5084131;28;20044;-82
2023/06/19 07:07:11;;;;;;;6.93;6.22;;;21.10;99.90;;;;;;5086572;28;20066;-82
2023/06/19 07:09:37;;;;;;;7.50;6.70;;;21.10;99.90;;;;;;5068182;28;20715;-81
2023/06/19 07:12:04;;;;;;;7.32;6.60;;;21.20;99.90;;;;;;5085591;28;20044;-81
2023/06/19 07:14:30;;;;;;;7.32;6.72;;;21.20;99.90;;;;;;5086493;28;20071;-81
2023/06/19 07:16:56;;;;;;;6.38;5.88;;;21.20;99.90;;;;;;5086032;28;20463;-81
2023/06/19 07:19:21;;;;;;;7.13;6.43;;;21.20;99.90;;;;;;5086921;28;20040;-82
2023/06/19 07:21:49;;;;;;;7.22;6.53;;;21.20;99.90;;;;;;5086549;28;20086;-81
2023/06/19 07:24:15;;;;;;;7.20;6.60;;;21.10;99.90;;;;;;5086133;28;20048;-81
2023/06/19 07:26:40;;;;;;;9.60;6.63;;;21.00;99.90;;;;;;5087385;28;20050;-82
2023/06/19 07:29:06;;;;;;;6.85;5.90;;;21.00;99.90;;;;;;5085910;28;20048;-82
2023/06/19 07:31:32;;;;;;;5.82;5.32;;;21.00;99.90;;;;;;5085749;28;20050;-81
2023/06/19 07:33:57;;;;;;;6.20;5.65;;;20.90;99.90;;;;;;5087116;28;20070;-80
2023/06/19 07:36:23;;;;;;;5.90;5.40;;;20.90;99.90;;;;;;5086930;28;20178;-85
2023/06/19 07:38:48;;;;;;;7.03;5.68;;;21.00;99.90;;;;;;5082028;28;20040;-84
2023/06/19 07:41:14;;;;;;;6.78;6.18;;;21.00;99.90;;;;;;5079012;28;20111;-85
2023/06/19 07:43:43;;;;;;;7.43;6.72;;;21.00;99.90;;;;;;5078248;28;20447;-84
2023/06/19 07:46:09;;;;;;;7.40;6.80;;;21.50;99.90;;;;;;5065843;28;20049;-84
2023/06/19 07:48:35;;;;;;;7.45;6.60;;;21.00;99.90;;;;;;5084595;28;20054;-83
2023/06/19 07:51:00;;;;;;;10.30;6.95;;;21.00;99.90;;;;;;5086510;28;20054;-85
2023/06/19 07:53:26;;;;;;;7.95;6.68;;;21.00;99.90;;;;;;5087906;28;20062;-86
2023/06/19 07:55:52;;;;;;;7.43;6.47;;;21.00;99.90;;;;;;5080428;28;20052;-86
2023/06/19 07:58:18;;;;;;;7.85;7.15;;;20.80;99.90;;;;;;5088799;28;20036;-85
2023/06/19 08:00:43;;;;;;;8.95;7.18;;;21.00;99.90;;;;;;5071294;28;20407;-85
2023/06/19 08:03:09;;;;;;;7.00;6.40;;;20.90;99.90;;;;;;5081590;28;20059;-85
2023/06/19 08:05:34;;;;;;;6.75;6.15;;;20.90;99.90;;;;;;5068712;28;20040;-85
2023/06/19 08:08:01;;;;;;;6.38;5.88;;;20.90;99.90;;;;;;5089835;28;20079;-86
2023/06/19 08:10:30;;;;;;;6.05;5.63;;;21.20;99.90;;;;;;5089090;28;20074;-85
2023/06/19 08:12:56;;;;;;;6.28;5.78;;;21.20;99.90;;;;;;5091014;28;20071;-86
2023/06/19 08:15:22;;;;;;;6.43;5.93;;;21.30;99.90;;;;;;5072230;28;20193;-85
2023/06/19 08:17:48;;;;;;;7.22;6.63;;;21.40;99.90;;;;;;5089787;28;20539;-86
2023/06/19 08:20:13;;;;;;;7.25;6.55;;;21.50;99.90;;;;;;5069608;28;20510;-85
2023/06/19 08:22:39;;;;;;;6.53;5.93;;;21.60;99.90;;;;;;5089570;28;20131;-85
2023/06/19 08:25:05;;;;;;;8.10;7.32;;;21.70;99.90;;;;;;5087118;28;20055;-86
2023/06/19 08:27:31;;;;;;;8.35;7.60;;;21.80;99.90;;;;;;5090213;28;20032;-86
2023/06/19 08:29:56;;;;;;;8.27;7.65;;;21.80;99.90;;;;;;5089243;28;20105;-86
2023/06/19 08:32:22;;;;;;;8.93;8.02;;;22.10;99.90;;;;;;5089848;28;20386;-86
2023/06/19 08:34:48;;;;;;;9.20;8.40;;;21.80;99.90;;;;;;5088318;28;20117;-86
2023/06/19 08:37:13;;;;;;;9.93;9.07;;;21.90;99.90;;;;;;5088013;28;20080;-86
2023/06/19 08:39:39;;;;;;;9.48;8.68;;;22.10;99.90;;;;;;5082389;28;20125;-85
2023/06/19 08:42:08;;;;;;;9.80;9.00;;;22.00;99.90;;;;;;5069518;28;20056;-85
2023/06/19 08:44:35;;;;;;;10.10;9.30;;;22.00;99.90;;;;;;5068014;28;20052;-87
2023/06/19 08:47:05;;;;;;;10.20;9.40;;;22.30;99.90;;;;;;5071629;28;20210;-86
2023/06/19 08:49:33;;;;;;;10.05;9.25;;;22.20;99.90;;;;;;5087723;28;20131;-87
2023/06/19 08:51:59;;;;;;;11.02;9.98;;;22.30;99.90;;;;;;5088768;28;20121;-87
2023/06/19 08:54:27;;;;;;;10.35;9.35;;;22.40;99.90;;;;;;5083325;28;20595;-87
2023/06/19 08:56:56;;;;;;;12.70;9.85;;;22.50;99.90;;;;;;5068368;28;20044;-86
2023/06/19 08:59:21;;;;;;;8.88;8.07;;;22.60;99.90;;;;;;5072772;28;20063;-85
2023/06/19 09:01:53;;;;;;;8.30;7.50;;;22.40;99.90;;;;;;5086573;28;20043;-83
2023/06/19 09:04:21;;;;;;;8.52;7.50;;;22.40;99.90;;;;;;5088274;28;20040;-84
2023/06/19 09:06:52;;;;;;;8.57;7.00;;;22.40;99.90;;;;;;5088589;28;20055;-84
2023/06/19 09:09:20;;;;;;;7.72;6.90;;;22.20;99.90;;;;;;5086956;28;20047;-83
2023/06/19 09:12:17;;;;;;;6.68;6.18;;;22.00;99.90;;;;;;5072060;28;20043;-84
2023/06/19 09:14:44;;;;;;;7.78;6.68;;;22.00;99.90;;;;;;5080972;28;20056;-83
2023/06/19 09:17:13;;;;;;;8.20;6.45;;;22.00;99.90;;;;;;5088435;28;20078;-84
2023/06/19 09:19:46;;;;;;;7.63;6.43;;;22.10;99.90;;;;;;5088459;28;20067;-84
2023/06/19 09:22:12;;;;;;;7.05;5.75;;;22.20;99.90;;;;;;5070704;28;20048;-83
2023/06/19 09:24:41;;;;;;;10.90;5.65;;;22.10;99.90;;;;;;5086715;28;20376;-83
2023/06/19 09:27:14;;;;;;;6.38;5.70;;;22.20;99.90;;;;;;5087510;28;20036;-83
2023/06/19 09:29:41;;;;;;;5.93;5.43;;;22.30;99.90;;;;;;5070101;28;20055;-86
2023/06/19 09:32:17;;;;;;;6.15;5.55;;;22.00;99.90;;;;;;5088162;28;20048;-86
2023/06/19 09:34:43;;;;;;;9.00;5.53;;;22.00;99.90;;;;;;5087455;28;20044;-84
2023/06/19 09:37:09;;;;;;;10.23;6.13;;;22.00;99.90;;;;;;5086007;28;20116;-87
2023/06/19 09:39:37;;;;;;;7.75;5.78;;;22.10;99.90;;;;;;5087331;28;20052;-85
2023/06/19 09:42:05;;;;;;;7.28;6.18;;;22.20;99.90;;;;;;5087629;28;20052;-85
2023/06/19 09:44:44;;;;;;;7.40;6.68;;;22.20;99.90;;;;;;5087420;28;20090;-86
2023/06/19 09:47:24;;;;;;;7.68;6.97;;;22.20;99.90;;;;;;5085296;28;20120;-87
2023/06/19 09:49:54;;;;;;;11.90;7.43;;;22.30;99.90;;;;;;5069721;28;20044;-86
2023/06/19 09:52:24;;;;;;;8.20;7.00;;;22.60;99.90;;;;;;5089034;28;20048;-84
2023/06/19 09:54:51;;;;;;;8.65;6.70;;;22.60;99.90;;;;;;5091355;28;20036;-84
2023/06/19 09:57:18;;;;;;;10.00;7.60;;;22.70;99.90;;;;;;5090988;28;20044;-84
2023/06/19 09:59:51;;;;;;;9.90;7.72;;;22.80;99.90;;;;;;5087227;28;20051;-84
2023/06/19 10:02:19;;;;;;;14.20;9.02;;;22.80;99.90;;;;;;5086252;28;20105;-84
2023/06/19 10:04:49;;;;;;;14.13;9.15;;;22.90;99.90;;;;;;5091125;28;20055;-87
2023/06/19 10:07:22;;;;;;;11.52;8.77;;;22.80;99.90;;;;;;5083846;28;20044;-84
2023/06/19 10:10:25;;;;;;;8.88;8.05;;;22.90;99.90;;;;;;5083760;28;20075;-84
2023/06/19 10:12:51;;;;;;;9.88;8.40;;;22.70;99.90;;;;;;5077522;28;20097;-85
2023/06/19 10:15:28;;;;;;;11.55;8.50;;;22.50;99.90;;;;;;5083919;28;20040;-87
2023/06/19 10:18:02;;;;;;;8.63;6.82;;;22.50;99.90;;;;;;5069299;28;20112;-87
2023/06/19 10:20:39;;;;;;;8.88;7.45;;;22.50;99.90;;;;;;5086493;28;20083;-84
2023/06/19 10:23:13;;;;;;;8.77;6.60;;;22.90;99.90;;;;;;5088340;28;20063;-84
2023/06/19 10:25:41;;;;;;;7.63;6.90;;;23.20;99.90;;;;;;5068479;28;20059;-83
2023/06/19 10:28:21;;;;;;;8.32;7.53;;;23.50;99.90;;;;;;5086400;28;20052;-84
2023/06/19 10:30:54;;;;;;;10.13;7.47;;;23.50;99.90;;;;;;5070114;28;20184;-85
2023/06/19 10:33:20;;;;;;;8.07;6.75;;;23.40;99.90;;;;;;5069582;28;20048;-84
2023/06/19 10:35:46;;;;;;;9.10;8.20;;;23.10;99.90;;;;;;5084758;28;20028;-85
2023/06/19 10:38:15;;;;;;;8.43;6.70;;;22.80;99.90;;;;;;5066381;28;20041;-84
2023/06/19 10:40:40;;;;;;;6.50;5.63;;;22.80;99.90;;;;;;5066149;28;20511;-84
2023/06/19 10:43:06;;;;;;;6.95;6.35;;;22.80;99.90;;;;;;5068326;28;20051;-85
2023/06/19 10:45:32;;;;;;;6.82;6.20;;;22.70;99.90;;;;;;5066187;28;20136;-85
2023/06/19 10:48:02;;;;;;;7.20;6.35;;;22.80;99.90;;;;;;5067909;28;20052;-85
2023/06/19 10:50:28;;;;;;;7.65;5.88;;;23.00;99.60;;;;;;5073169;28;20070;-85
2023/06/19 10:52:57;;;;;;;6.43;5.78;;;23.20;99.50;;;;;;5085197;28;20060;-86
2023/06/19 10:55:22;;;;;;;7.63;6.88;;;23.10;98.90;;;;;;5069158;28;20055;-85
2023/06/19 10:57:49;;;;;;;7.03;6.40;;;23.10;98.80;;;;;;5086574;28;20084;-86
2023/06/19 11:00:29;;;;;;;6.90;6.25;;;23.20;98.70;;;;;;5087302;28;20032;-84
2023/06/19 11:02:58;;;;;;;6.47;5.88;;;23.30;98.40;;;;;;5083306;28;20049;-87
2023/06/19 11:05:25;;;;;;;7.65;6.85;;;23.40;98.60;;;;;;5076250;28;20554;-85
2023/06/19 11:07:59;;;;;;;9.93;6.55;;;23.60;98.30;;;;;;5074077;28;20055;-85
2023/06/19 11:10:27;;;;;;;7.70;6.03;;;23.50;97.60;;;;;;5066340;28;20048;-85
2023/06/19 11:12:58;;;;;;;7.25;6.55;;;23.80;97.80;;;;;;5075609;28;20036;-85
2023/06/19 11:15:35;;;;;;;9.52;7.53;;;23.90;97.20;;;;;;5082149;28;20032;-85
2023/06/19 11:18:02;;;;;;;7.57;6.78;;;23.70;96.80;;;;;;5085667;28;20661;-84
2023/06/19 11:20:28;;;;;;;7.50;6.78;;;23.80;96.90;;;;;;5086437;28;20070;-86
2023/06/19 11:23:01;;;;;;;7.78;6.97;;;23.90;96.80;;;;;;5087363;28;20604;-84
2023/06/19 11:25:37;;;;;;;6.88;6.13;;;23.90;95.70;;;;;;5085259;28;20040;-84
2023/06/19 11:28:04;;;;;;;6.45;5.50;;;23.90;95.60;;;;;;5085855;28;20090;-85
2023/06/19 11:30:33;;;;;;;8.32;6.85;;;23.70;95.70;;;;;;5053715;28;20614;-84
2023/06/19 11:33:00;;;;;;;7.28;6.18;;;24.20;95.10;;;;;;5070343;28;20568;-84
2023/06/19 11:35:34;;;;;;;7.68;6.97;;;24.10;95.10;;;;;;5053646;28;20040;-86
2023/06/19 11:37:59;;;;;;;7.63;6.93;;;24.00;94.40;;;;;;5071055;28;20097;-86
2023/06/19 11:40:25;;;;;;;7.85;7.03;;;23.90;94.90;;;;;;5090566;28;20036;-86
2023/06/19 11:42:54;;;;;;;7.28;6.38;;;24.00;94.90;;;;;;5090156;28;20395;-87
2023/06/19 11:45:21;;;;;;;8.07;7.07;;;23.90;94.90;;;;;;5088592;28;20047;-86
2023/06/19 11:47:49;;;;;;;7.22;6.53;;;23.90;95.00;;;;;;5089349;28;20052;-85
2023/06/19 11:50:19;;;;;;;6.95;6.28;;;23.90;95.10;;;;;;5089497;28;20507;-86
2023/06/19 11:52:44;;;;;;;9.27;6.72;;;23.80;95.40;;;;;;5089762;28;20044;-85
2023/06/19 11:55:10;;;;;;;7.78;7.00;;;24.10;95.60;;;;;;5089150;28;20763;-86
2023/06/19 11:57:36;;;;;;;8.02;7.20;;;24.10;94.70;;;;;;5088408;28;20039;-85
2023/06/19 12:00:05;;;;;;;8.63;7.82;;;24.20;94.20;;;;;;5088362;28;20055;-84
2023/06/19 12:02:32;;;;;;;6.97;6.22;;;24.00;93.70;;;;;;5089465;28;20048;-83
2023/06/19 12:04:57;;;;;;;7.00;5.65;;;24.00;94.10;;;;;;5090248;28;20384;-83
2023/06/19 12:07:23;;;;;;;7.43;6.65;;;24.20;94.30;;;;;;5089416;28;20150;-84
2023/06/19 12:09:48;;;;;;;8.18;7.07;;;24.30;93.70;;;;;;5090430;28;20047;-83
2023/06/19 12:12:14;;;;;;;7.40;6.70;;;24.60;93.20;;;;;;5086697;28;20484;-83
2023/06/19 12:14:40;;;;;;;10.52;7.78;;;24.50;92.50;;;;;;5086706;28;20044;-85
2023/06/19 12:17:05;;;;;;;8.65;7.47;;;24.60;92.20;;;;;;5086904;28;20051;-83
2023/06/19 12:19:31;;;;;;;9.10;7.75;;;24.60;92.20;;;;;;5085993;28;20070;-84
2023/06/19 12:21:57;;;;;;;8.20;7.47;;;24.70;92.20;;;;;;5087364;28;20036;-84
2023/06/19 12:24:23;;;;;;;9.35;7.63;;;24.90;92.10;;;;;;5086484;28;20060;-84
2023/06/19 12:26:48;;;;;;;8.50;7.22;;;24.70;92.10;;;;;;5085627;28;20047;-83
2023/06/19 12:29:14;;;;;;;7.85;6.78;;;24.50;92.00;;;;;;5087729;28;20047;-83
2023/06/19 12:31:40;;;;;;;8.45;7.57;;;24.50;92.20;;;;;;5088664;28;20642;-81
2023/06/19 12:34:06;;;;;;;8.38;7.43;;;24.60;92.30;;;;;;5088491;28;20040;-83
2023/06/19 12:36:31;;;;;;;8.13;7.32;;;24.30;92.40;;;;;;5072053;28;20048;-83
2023/06/19 12:38:59;;;;;;;9.15;8.20;;;24.20;92.80;;;;;;5089267;28;20047;-84
2023/06/19 12:41:25;;;;;;;10.82;7.85;;;24.20;92.90;;;;;;5068539;28;20047;-85
2023/06/19 12:43:51;;;;;;;7.85;7.05;;;24.20;92.90;;;;;;5087581;28;20051;-85
2023/06/19 12:46:16;;;;;;;8.63;7.82;;;24.40;92.80;;;;;;5088069;28;20108;-85